Drujba — LZHX — position and weather

sailwx.info

Track history (hours):
 
Tides and Currents Weather Stations Pressure Air Temp Water Temp Dewpoint Dewpoint Depression Visibility Wind Speed Wind Dir Waves Ship Positions

Drujba

Last reported at 2018-Jul-14 17:09 UTC. Time now 2018-Jul-21 11:32 UTC.
Position N 42°23' E 031°60'.

Length 150 m; draft 5.1 m.

Type: Passenger vessel. MMSI: 207277000.

Date/timePositionNaut miles runAvg speedWind from/ knotsBaromVisibWave heightAir tempDewpointWater temp
2018-Jul-14 17:09N 42°23' E 031°60'612.4
2018-Jul-14 16:41N 42°24' E 031°52'312.4
2018-Jul-14 16:27N 42°24' E 031°48'1812.6
2018-Jul-14 15:02N 42°24' E 031°24'012.5
2018-Jul-14 15:00N 42°24' E 031°23'812.4
2018-Jul-14 14:23N 42°24' E 031°13'1112.4
2018-Jul-14 13:29N 42°24' E 030°58'712.4
2018-Jul-14 12:56N 42°24' E 030°49'512.4
2018-Jul-14 12:30N 42°24' E 030°41'612.5
2018-Jul-14 12:00N 42°25' E 030°33'612.4
2018-Jul-14 11:30N 42°25' E 030°25'1712.8
2018-Jul-14 10:11N 42°26' E 030°02'512.9
2018-Jul-14 09:50N 42°26' E 029°55'2612.9
2018-Jul-14 07:50N 42°27' E 029°21'512.9
2018-Jul-14 07:26N 42°27' E 029°14'512.9
2018-Jul-14 07:00N 42°27' E 029°06'  
2018-Jul-11 23:22N 42°25' E 031°52'513.2
2018-Jul-11 23:00N 42°25' E 031°59'713.1
2018-Jul-11 22:28N 42°25' E 032°08'  
2018-Jul-08 00:27N 42°22' E 033°21'1412.7
2018-Jul-07 23:21N 42°23' E 033°02'512.8
2018-Jul-07 22:59N 42°23' E 032°56'612.8
2018-Jul-07 22:30N 42°23' E 032°47'612.6
2018-Jul-07 22:00N 42°23' E 032°39'612.4
2018-Jul-07 21:30N 42°23' E 032°30'612.3
2018-Jul-07 21:00N 42°23' E 032°22'612.4
2018-Jul-07 20:30N 42°23' E 032°14'612.3
2018-Jul-07 20:00N 42°23' E 032°05'812.1
2018-Jul-07 19:19N 42°24' E 031°54'4112.5
2018-Jul-07 16:00N 42°25' E 030°58'11113.0
2018-Jul-07 07:26N 42°27' E 028°28'712.7
2018-Jul-07 06:52N 42°28' E 028°18'2113.0
2018-Jul-07 05:15N 42°28' E 027°50'16 0.3
2018-Jul-05 03:40N 42°28' E 027°29'2 7.6
2018-Jul-05 03:26N 42°29' E 027°31'511.3
2018-Jul-05 03:00N 42°29' E 027°38'612.7
2018-Jul-05 02:30N 42°29' E 027°46'613.1
2018-Jul-05 02:00N 42°30' E 027°55'713.3
2018-Jul-05 01:30N 42°30' E 028°04'813.4
2018-Jul-05 00:55N 42°30' E 028°15'513.0
2018-Jul-05 00:30N 42°29' E 028°22'713.2
2018-Jul-05 00:00N 42°29' E 028°31'813.6
2018-Jul-04 23:25N 42°28' E 028°42'613.6
2018-Jul-04 23:00N 42°28' E 028°49'713.5
2018-Jul-04 22:29N 42°28' E 028°59'713.4
2018-Jul-04 22:00N 42°27' E 029°08'713.5
2018-Jul-04 21:30N 42°27' E 029°17'713.5
2018-Jul-04 21:00N 42°27' E 029°26'713.3
2018-Jul-04 20:30N 42°27' E 029°35'2313.2
2018-Jul-04 18:46N 42°26' E 030°06'1013.4
2018-Jul-04 18:02N 42°26' E 030°19'213.5
2018-Jul-04 17:55N 42°26' E 030°21'613.5
2018-Jul-04 17:30N 42°26' E 030°29'  
Track history (hours):
 
Tides and Currents Weather Stations Pressure Air Temp Water Temp Dewpoint Dewpoint Depression Visibility Wind Speed Wind Dir Waves Ship Positions

Drujba

Last reported at 2018-Jul-14 17:09 UTC. Time now 2018-Jul-21 11:32 UTC.
Position N 42°23' E 031°60'.

Length 150 m; draft 5.1 m.

Type: Passenger vessel. MMSI: 207277000.

Date/timePositionNaut miles runAvg speedWind from/ knotsBaromVisibWave heightAir tempDewpointWater temp
2018-Jul-14 17:09N 42°23' E 031°60'612.4
2018-Jul-14 16:41N 42°24' E 031°52'312.4
2018-Jul-14 16:27N 42°24' E 031°48'1812.6
2018-Jul-14 15:02N 42°24' E 031°24'012.5
2018-Jul-14 15:00N 42°24' E 031°23'812.4
2018-Jul-14 14:23N 42°24' E 031°13'1112.4
2018-Jul-14 13:29N 42°24' E 030°58'712.4
2018-Jul-14 12:56N 42°24' E 030°49'512.4
2018-Jul-14 12:30N 42°24' E 030°41'612.5
2018-Jul-14 12:00N 42°25' E 030°33'612.4
2018-Jul-14 11:30N 42°25' E 030°25'1712.8
2018-Jul-14 10:11N 42°26' E 030°02'512.9
2018-Jul-14 09:50N 42°26' E 029°55'2612.9
2018-Jul-14 07:50N 42°27' E 029°21'512.9
2018-Jul-14 07:26N 42°27' E 029°14'512.9
2018-Jul-14 07:00N 42°27' E 029°06'  
2018-Jul-11 23:22N 42°25' E 031°52'513.2
2018-Jul-11 23:00N 42°25' E 031°59'713.1
2018-Jul-11 22:28N 42°25' E 032°08'  
2018-Jul-08 00:27N 42°22' E 033°21'1412.7
2018-Jul-07 23:21N 42°23' E 033°02'512.8
2018-Jul-07 22:59N 42°23' E 032°56'612.8
2018-Jul-07 22:30N 42°23' E 032°47'612.6
2018-Jul-07 22:00N 42°23' E 032°39'612.4
2018-Jul-07 21:30N 42°23' E 032°30'612.3
2018-Jul-07 21:00N 42°23' E 032°22'612.4
2018-Jul-07 20:30N 42°23' E 032°14'612.3
2018-Jul-07 20:00N 42°23' E 032°05'812.1
2018-Jul-07 19:19N 42°24' E 031°54'4112.5
2018-Jul-07 16:00N 42°25' E 030°58'11113.0
2018-Jul-07 07:26N 42°27' E 028°28'712.7
2018-Jul-07 06:52N 42°28' E 028°18'2113.0
2018-Jul-07 05:15N 42°28' E 027°50'16 0.3
2018-Jul-05 03:40N 42°28' E 027°29'2 7.6
2018-Jul-05 03:26N 42°29' E 027°31'511.3
2018-Jul-05 03:00N 42°29' E 027°38'612.7
2018-Jul-05 02:30N 42°29' E 027°46'613.1
2018-Jul-05 02:00N 42°30' E 027°55'713.3
2018-Jul-05 01:30N 42°30' E 028°04'813.4
2018-Jul-05 00:55N 42°30' E 028°15'513.0
2018-Jul-05 00:30N 42°29' E 028°22'713.2
2018-Jul-05 00:00N 42°29' E 028°31'813.6
2018-Jul-04 23:25N 42°28' E 028°42'613.6
2018-Jul-04 23:00N 42°28' E 028°49'713.5
2018-Jul-04 22:29N 42°28' E 028°59'713.4
2018-Jul-04 22:00N 42°27' E 029°08'713.5
2018-Jul-04 21:30N 42°27' E 029°17'713.5
2018-Jul-04 21:00N 42°27' E 029°26'713.3
2018-Jul-04 20:30N 42°27' E 029°35'2313.2
2018-Jul-04 18:46N 42°26' E 030°06'1013.4
2018-Jul-04 18:02N 42°26' E 030°19'213.5
2018-Jul-04 17:55N 42°26' E 030°21'613.5
2018-Jul-04 17:30N 42°26' E 030°29'  

Dump ship's entire track history